Flight Track Log - Related Links

Times and Time Zones

All times are in EDT time to prevent confusion due to time zone crossing. See the N600AJ flight status page for this flight to view local times or setup timezone preferences in your user account.

Time Position Orientation Groundspeed Altitude Reporting Facility
EDT Latitude Longitude Course Direction KTS MPH feet Rate Location/Type
Fri 02:14:27 PM 44.4725 -73.3217 247° West 261 300 9,800  Level Boston Center
Fri 02:15:27 PM 44.4406 -73.4286 247° West 287 330 14,000 3,800 Climbing Boston Center
Fri 02:16:27 PM 44.4081 -73.5472 249° West 318 366 17,400 3,250 Climbing Boston Center
Fri 02:17:27 PM 44.3736 -73.6714 249° West 337 388 20,500 2,300 Climbing Boston Center
Fri 02:18:27 PM 44.3344 -73.8014 247° West 344 396 22,000 750 Climbing Boston Center
Fri 02:19:00 PM 44.2744 -73.8210 247° West  Level FlightAware Approximate
Fri 02:19:27 PM 44.2911 -73.9511 248° West 388 447 22,000  Level Boston Center
Fri 02:20:27 PM 44.2472 -74.0978 247° West 408 470 22,000  Level Boston Center
Fri 02:21:39 PM 44.2078 -74.2300 247° West 408 470 22,000  Level Boston Center
Fri 02:22:39 PM 44.1569 -74.4078 248° West 413 475 22,000  Level Boston Center
Fri 02:23:39 PM 44.1128 -74.5508 247° West 413 475 22,000  Level Boston Center
Fri 02:24:39 PM 44.0703 -74.6969 248° West 413 475 22,000  Level Boston Center
Fri 02:25:39 PM 44.0278 -74.8425 248° West 413 475 22,000  Level Boston Center
Fri 02:26:39 PM 43.9831 -74.9850 246° West 413 475 22,000  Level Boston Center
Fri 02:27:39 PM 43.9381 -75.1331 247° West 413 475 22,000 900 Level Boston Center
Fri 02:28:39 PM 43.8950 -75.2753 247° West 413 475 23,800 864 Climbing Boston Center
Fri 02:29:51 PM 43.8472 -75.4283 247° West 413 475 23,900 91 Climbing Boston Center
Fri 02:30:51 PM 43.7903 -75.6097 247° West 424 488 24,000 50 Climbing Boston Center
Fri 02:31:51 PM 43.7444 -75.7625 247° West 434 499 24,000  Level Boston Center
Fri 02:32:51 PM 43.6961 -75.9150 246° West 434 499 24,000 -150 Level Boston Center
Fri 02:33:51 PM 43.6478 -76.0617 246° West 434 499 23,700 -1,050 Descending Boston Center
Fri 02:34:51 PM 43.6033 -76.2050 247° West 429 494 21,900 -1,800 Descending Boston Center
Fri 02:35:51 PM 43.5592 -76.3458 247° West 416 479 20,100 -1,450 Descending Boston Center
Fri 02:36:51 PM 43.5147 -76.4861 246° West 411 473 19,000 -332 Descending Boston Center
Fri 02:39:10 PM 43.4094 -76.8053 246° West 393 452 19,000 -31 Level Cleveland Center
Fri 02:40:06 PM 43.3617 -76.9422 244° Southwest 382 440 18,900 -892 Descending Cleveland Center
Fri 02:40:24 PM 43.3522 -76.9744 248° West 335 386 17,900 -4,688 Descending Cleveland Center
Fri 02:41:10 PM 43.3236 -77.0617 246° West 360 414 13,900 -4,245 Descending Cleveland Center
Fri 02:42:10 PM 43.3147 -77.1764 264° West 330 380 10,400 -3,300 Descending Cleveland Center
Fri 02:43:10 PM 43.3111 -77.2706 267° West 288 331 7,300 -2,950 Descending Cleveland Center
Fri 02:44:10 PM 43.2969 -77.3569 257° West 259 298 4,500 -2,150 Descending Cleveland Center
Fri 02:45:10 PM 43.2825 -77.4433 257° West 239 275 3,000 -1,000 Descending Cleveland Center
Fri 02:46:10 PM 43.2619 -77.5269 251° West 239 275 2,500 -385 Descending Cleveland Center
Fri 02:46:28 PM 43.2522 -77.5561 245° Southwest 245 282 2,500  Level Cleveland Center
Fri 02:47:10 PM 43.2261 -77.5917 225° Southwest 229 264 2,500 -235 Level Cleveland Center
Fri 02:48:10 PM 43.1892 -77.6217 211° Southwest 188 216 2,100 -550 Descending Cleveland Center
Fri 02:49:10 PM 43.1567 -77.6489 211° Southwest 168 193 1,400 -700 Descending Cleveland Center

Login

Don't have an account? Register now (free) for customized features, flight alerts, and more!